Time;durP1;ratioP1;P1;durP2;ratioP2;P2;SDS_P1;SDS_P2;PMS_P1;PMS_P2;Temp;Humidity;BMP_temperature;BMP_pressure;BME280_temperature;BME280_humidity;BME280_pressure;Samples;Min_cycle;Max_cycle;Signal;HPM_P1;HPM_P2
2023/11/03 00:03:24;;;;;;;3.05;1.33;;;;;;;9.59;54.16;96760.16;10516250;28;20043;-64
2023/11/03 00:08:26;;;;;;;2.72;1.15;;;;;;;9.51;54.31;96766.22;10515627;28;20078;-64
2023/11/03 00:13:28;;;;;;;5.40;1.58;;;;;;;9.47;54.68;96782.34;10503808;28;20051;-64
2023/11/03 00:18:31;;;;;;;3.20;0.95;;;;;;;9.47;54.68;96788.38;10516753;28;20252;-64
2023/11/03 00:23:33;;;;;;;1.85;1.15;;;;;;;9.43;54.64;96801.88;10516264;28;20060;-64
2023/11/03 00:28:35;;;;;;;1.50;0.75;;;;;;;9.53;54.79;96808.59;10511952;28;20036;-64
2023/11/03 00:33:37;;;;;;;3.42;1.00;;;;;;;9.52;54.66;96799.13;10516353;28;20044;-64
2023/11/03 00:38:43;;;;;;;3.67;0.88;;;;;;;9.60;54.70;96811.38;10513998;28;20050;-64
2023/11/03 00:43:46;;;;;;;1.92;1.00;;;;;;;9.72;54.45;96801.47;10513016;28;20381;-64
2023/11/03 00:48:48;;;;;;;1.85;1.10;;;;;;;9.64;54.38;96800.47;10496973;28;20433;-65
2023/11/03 00:53:50;;;;;;;1.65;0.98;;;;;;;9.68;54.35;96802.78;10510365;28;20135;-64
2023/11/03 00:58:52;;;;;;;1.90;0.85;;;;;;;9.75;54.33;96803.78;10509681;28;20514;-64
2023/11/03 01:03:54;;;;;;;1.30;0.65;;;;;;;9.74;54.37;96805.56;10514091;28;20602;-64
2023/11/03 01:08:57;;;;;;;5.28;1.08;;;;;;;9.59;54.59;96807.13;10502056;28;20133;-64
2023/11/03 01:13:59;;;;;;;3.75;0.90;;;;;;;9.61;54.42;96805.19;10502558;28;20068;-64
2023/11/03 01:19:04;;;;;;;5.13;1.58;;;;;;;9.57;54.59;96789.03;10507987;28;20075;-64
2023/11/03 01:24:10;;;;;;;2.72;0.75;;;;;;;9.61;54.77;96795.56;10510477;28;20543;-64
2023/11/03 01:29:12;;;;;;;2.38;0.68;;;;;;;9.64;54.69;96802.25;10512518;28;20988;-64
2023/11/03 01:34:14;;;;;;;8.32;1.40;;;;;;;9.67;54.76;96806.38;10512591;28;20169;-64
2023/11/03 01:39:16;;;;;;;1.77;1.20;;;;;;;9.74;54.73;96799.53;10509892;28;20209;-64
2023/11/03 01:44:19;;;;;;;0.82;0.75;;;;;;;9.82;54.58;96797.75;10504800;28;20129;-64
2023/11/03 01:49:21;;;;;;;2.65;0.68;;;;;;;9.84;54.66;96795.78;10499080;28;20054;-64
2023/11/03 01:54:23;;;;;;;2.65;1.02;;;;;;;9.86;54.79;96803.44;10520748;28;20048;-64
2023/11/03 01:59:25;;;;;;;1.65;0.70;;;;;;;9.86;54.72;96799.03;10506806;28;20139;-64
2023/11/03 02:04:27;;;;;;;3.38;0.85;;;;;;;9.93;54.62;96805.22;10509609;28;20055;-64
2023/11/03 02:09:30;;;;;;;3.65;1.48;;;;;;;9.86;54.45;96796.44;10510546;28;20419;-64
2023/11/03 02:14:32;;;;;;;1.33;0.80;;;;;;;9.78;54.45;96801.66;10527891;28;20040;-64
2023/11/03 02:19:35;;;;;;;0.75;0.60;;;;;;;9.77;54.04;96814.88;10505618;28;20051;-64
2023/11/03 02:24:37;;;;;;;1.77;0.80;;;;;;;9.78;53.94;96819.09;10510972;28;20052;-64
2023/11/03 02:29:39;;;;;;;1.75;0.90;;;;;;;9.97;53.43;96810.97;10492659;28;20454;-64
2023/11/03 02:34:41;;;;;;;0.60;0.47;;;;;;;9.95;53.46;96815.53;10511018;28;20550;-63
2023/11/03 02:39:47;;;;;;;0.68;0.57;;;;;;;10.02;53.14;96821.72;10510794;28;20040;-64
2023/11/03 02:44:49;;;;;;;0.55;0.55;;;;;;;10.00;53.10;96834.09;10503522;28;20126;-64
2023/11/03 02:49:51;;;;;;;2.70;1.23;;;;;;;9.94;52.88;96832.97;10502522;28;20036;-64
2023/11/03 02:54:53;;;;;;;0.60;0.40;;;;;;;10.01;52.95;96848.81;10509828;28;20131;-64
2023/11/03 02:59:55;;;;;;;0.30;0.30;;;;;;;10.03;52.83;96842.47;10503400;28;20469;-64
2023/11/03 03:04:57;;;;;;;0.40;0.40;;;;;;;9.98;52.89;96839.50;10508843;28;20048;-64
2023/11/03 03:09:59;;;;;;;1.90;1.25;;;;;;;9.96;52.94;96841.47;10508613;28;20044;-64
2023/11/03 03:15:04;;;;;;;3.60;0.77;;;;;;;9.96;53.18;96843.25;10504303;28;20125;-64
2023/11/03 03:20:06;;;;;;;5.78;0.70;;;;;;;9.90;52.92;96854.34;10511747;28;20040;-63
2023/11/03 03:25:09;;;;;;;0.50;0.50;;;;;;;9.97;53.15;96855.34;10508700;28;20123;-64
2023/11/03 03:30:11;;;;;;;1.48;0.90;;;;;;;9.98;53.14;96854.34;10508474;28;20392;-64
2023/11/03 03:35:13;;;;;;;3.75;0.80;;;;;;;9.95;53.13;96844.25;10509548;28;20171;-63
2023/11/03 03:40:16;;;;;;;2.08;0.57;;;;;;;9.99;53.22;96850.78;10509281;28;20134;-64
2023/11/03 03:45:18;;;;;;;0.93;0.50;;;;;;;9.98;53.01;96847.34;10515318;28;20048;-63
2023/11/03 03:50:20;;;;;;;2.30;0.68;;;;;;;9.93;52.97;96835.75;10517152;28;20051;-65
2023/11/03 03:55:22;;;;;;;2.55;0.50;;;;;;;9.96;52.71;96841.47;10517858;28;20052;-65
2023/11/03 04:00:24;;;;;;;1.23;0.60;;;;;;;9.88;52.88;96851.06;10513701;28;20054;-64
2023/11/03 04:05:25;;;;;;;0.85;0.43;;;;;;;9.80;52.84;96856.28;10515762;28;20058;-64
2023/11/03 04:10:27;;;;;;;1.52;0.50;;;;;;;9.86;52.74;96858.25;10516472;28;20055;-64
2023/11/03 04:15:29;;;;;;;1.45;0.65;;;;;;;9.88;52.58;96858.91;10506747;28;20063;-64
2023/11/03 04:20:31;;;;;;;5.85;1.17;;;;;;;9.86;52.72;96863.47;10517559;28;20113;-63
2023/11/03 04:25:33;;;;;;;0.60;0.50;;;;;;;9.91;52.60;96879.47;10514912;28;20063;-63
2023/11/03 04:30:36;;;;;;;1.20;0.65;;;;;;;9.82;52.40;96886.47;10497440;28;20105;-64
2023/11/03 04:35:38;;;;;;;1.65;0.88;;;;;;;9.76;52.13;96881.06;10513916;28;20161;-64
2023/11/03 04:40:40;;;;;;;1.25;0.52;;;;;;;9.76;52.64;96884.50;10515316;28;20040;-64
2023/11/03 04:45:43;;;;;;;2.58;0.98;;;;;;;9.84;52.47;96886.31;10516028;28;21040;-64
2023/11/03 04:50:46;;;;;;;0.60;0.60;;;;;;;9.79;52.81;96896.44;10513515;28;20139;-64
2023/11/03 04:55:49;;;;;;;0.90;0.60;;;;;;;9.84;52.74;96909.78;10509848;28;20056;-64
2023/11/03 05:00:51;;;;;;;2.60;0.50;;;;;;;9.84;52.81;96909.78;10508871;28;20074;-64
2023/11/03 05:05:53;;;;;;;1.27;0.70;;;;;;;9.83;52.82;96916.00;10513679;28;20044;-64
2023/11/03 05:10:55;;;;;;;0.68;0.40;;;;;;;9.84;53.18;96909.78;10512641;28;20226;-64
2023/11/03 05:15:58;;;;;;;1.83;0.77;;;;;;;9.77;53.33;96898.38;10513560;28;20134;-64
2023/11/03 05:21:00;;;;;;;1.52;0.73;;;;;;;9.78;53.36;96879.13;10512684;28;20041;-62
2023/11/03 05:26:03;;;;;;;3.85;1.67;;;;;;;9.82;53.55;96875.22;10511559;28;20052;-63
2023/11/03 05:31:05;;;;;;;1.83;1.17;;;;;;;9.55;54.04;96876.25;10514145;28;20444;-64
2023/11/03 05:36:10;;;;;;;2.42;1.02;;;;;;;9.54;54.23;96869.44;10496205;28;20491;-65
2023/11/03 05:41:13;;;;;;;1.20;0.65;;;;;;;9.43;54.49;96878.34;10511033;28;20044;-63
2023/11/03 05:46:15;;;;;;;0.77;0.55;;;;;;;9.37;54.92;96892.03;10513358;28;20048;-63
2023/11/03 05:51:17;;;;;;;2.20;1.10;;;;;;;9.47;54.90;96900.53;10509895;28;20446;-64
2023/11/03 05:56:19;;;;;;;2.25;0.60;;;;;;;9.45;55.09;96904.28;10510020;28;20399;-64
2023/11/03 06:01:21;;;;;;;0.95;0.80;;;;;;;9.42;55.28;96907.22;10513099;28;20059;-63
2023/11/03 06:06:23;;;;;;;5.93;1.63;;;;;;;9.50;55.36;96915.06;10511284;28;20169;-63
2023/11/03 06:11:25;;;;;;;0.80;0.60;;;;;;;9.52;55.38;96911.31;10510802;28;20055;-63
2023/11/03 06:16:27;;;;;;;2.85;0.82;;;;;;;9.50;55.55;96910.66;10511334;28;20084;-63
2023/11/03 06:21:29;;;;;;;1.65;0.80;;;;;;;9.43;55.69;96901.81;10510972;28;20055;-64
2023/11/03 06:26:31;;;;;;;3.30;0.98;;;;;;;9.26;56.17;96905.34;10512417;28;20052;-64
2023/11/03 06:31:34;;;;;;;4.35;0.98;;;;;;;9.26;56.18;96918.38;10513551;28;20066;-64
2023/11/03 06:36:38;;;;;;;2.40;1.17;;;;;;;9.25;56.13;96937.63;10511903;28;20052;-64
2023/11/03 06:41:49;;;;;;;0.85;0.73;;;;;;;9.30;56.29;96950.19;10506287;28;20047;-64
2023/11/03 06:46:51;;;;;;;2.80;0.93;;;;;;;9.38;56.27;96971.09;10514014;28;20058;-64
2023/11/03 06:51:53;;;;;;;2.38;1.20;;;;;;;9.37;56.39;96996.34;10510364;28;20072;-63
2023/11/03 06:56:55;;;;;;;3.95;1.23;;;;;;;9.38;56.20;96997.19;10507556;28;20063;-65
2023/11/03 07:01:58;;;;;;;1.77;0.80;;;;;;;9.28;56.45;97002.47;10511776;28;20097;-64
2023/11/03 07:07:00;;;;;;;4.75;1.55;;;;;;;9.32;56.52;97026.50;10510417;28;20677;-64
2023/11/03 07:12:07;;;;;;;3.05;0.90;;;;;;;9.37;56.39;97037.25;10506990;28;20139;-64
2023/11/03 07:17:09;;;;;;;3.10;1.20;;;;;;;9.42;56.54;97048.06;10512080;28;20044;-64
2023/11/03 07:22:12;;;;;;;1.55;0.65;;;;;;;9.10;56.88;97038.22;10519087;28;20036;-64
2023/11/03 07:27:16;;;;;;;1.40;0.80;;;;;;;9.14;56.89;97042.16;10516254;28;20048;-64
2023/11/03 07:32:19;;;;;;;2.38;1.05;;;;;;;9.14;56.78;97038.72;10519174;28;20051;-63
2023/11/03 07:37:21;;;;;;;1.92;0.98;;;;;;;9.28;56.62;97044.22;10513303;28;20056;-64
2023/11/03 07:42:23;;;;;;;4.55;1.55;;;;;;;9.28;56.50;97040.81;10516394;28;20051;-65
2023/11/03 07:47:26;;;;;;;2.13;1.15;;;;;;;9.31;56.47;97049.13;10518791;28;20492;-64
2023/11/03 07:52:28;;;;;;;2.25;1.10;;;;;;;9.30;56.46;97049.28;10500243;28;20059;-65
2023/11/03 07:57:31;;;;;;;3.72;1.30;;;;;;;9.41;56.43;97062.88;10509965;28;20036;-69
2023/11/03 08:02:33;;;;;;;1.17;0.82;;;;;;;9.60;56.11;97049.63;10514320;28;20048;-69
2023/11/03 08:07:36;;;;;;;3.55;1.20;;;;;;;9.68;56.11;97045.44;10508651;28;20055;-69
2023/11/03 08:12:38;;;;;;;3.00;0.80;;;;;;;9.85;55.84;97058.41;10509761;28;20143;-69
2023/11/03 08:17:43;;;;;;;2.50;0.68;;;;;;;9.96;55.55;97060.75;10514192;28;20068;-69
2023/11/03 08:22:48;;;;;;;3.90;1.00;;;;;;;10.05;55.16;97072.06;10514117;28;20135;-68
2023/11/03 08:27:50;;;;;;;7.32;1.83;;;;;;;10.21;55.14;97083.38;10512681;28;20135;-68
2023/11/03 08:32:53;;;;;;;2.40;1.40;;;;;;;10.27;54.98;97094.97;10493824;28;20887;-69
2023/11/03 08:37:57;;;;;;;3.83;0.88;;;;;;;10.46;54.73;97100.75;10484542;28;20062;-69
2023/11/03 08:43:00;;;;;;;4.25;1.10;;;;;;;10.44;54.52;97101.88;10493041;28;20032;-68
2023/11/03 08:48:04;;;;;;;2.10;1.15;;;;;;;10.62;54.20;97105.22;10487831;28;20055;-68
2023/11/03 08:53:07;;;;;;;3.95;0.75;;;;;;;10.83;53.77;97105.56;10489132;28;20044;-68
2023/11/03 08:58:09;;;;;;;2.35;1.15;;;;;;;11.03;53.60;97113.94;10503659;28;20052;-68
2023/11/03 09:03:22;;;;;;;4.25;1.38;;;;;;;11.03;53.18;97114.72;10505522;28;20508;-67
2023/11/03 09:08:25;;;;;;;4.30;1.30;;;;;;;10.88;53.54;97115.53;10508614;28;20418;-68
2023/11/03 09:13:27;;;;;;;1.65;0.82;;;;;;;10.73;53.45;97128.41;10510522;28;20121;-67
2023/11/03 09:18:29;;;;;;;2.47;1.23;;;;;;;10.76;53.75;97129.91;10510817;28;20044;-68
2023/11/03 09:23:31;;;;;;;5.68;1.63;;;;;;;10.93;53.21;97118.50;10505722;28;20048;-68
2023/11/03 09:28:35;;;;;;;4.00;0.82;;;;;;;11.13;52.91;97128.50;10508986;28;20070;-68
2023/11/03 09:33:37;;;;;;;4.25;1.60;;;;;;;11.00;52.89;97122.91;10508617;28;20051;-68
2023/11/03 09:38:40;;;;;;;7.65;1.50;;;;;;;11.14;52.78;97126.69;10509668;28;20054;-68
2023/11/03 09:43:44;;;;;;;2.92;1.15;;;;;;;11.42;52.12;97133.22;10502541;28;20678;-68
2023/11/03 09:48:47;;;;;;;2.35;1.20;;;;;;;11.54;52.01;97141.59;10505811;28;20556;-69
2023/11/03 09:53:53;;;;;;;2.83;1.17;;;;;;;11.27;51.48;97140.91;10508410;28;20074;-69
2023/11/03 09:58:55;;;;;;;2.17;1.30;;;;;;;11.29;52.28;97152.03;10506889;28;20040;-68
2023/11/03 10:03:57;;;;;;;3.45;1.00;;;;;;;11.16;52.25;97162.19;10505208;28;20052;-69
2023/11/03 10:09:00;;;;;;;3.55;1.08;;;;;;;11.04;52.34;97158.25;10505908;28;20071;-69
2023/11/03 10:14:02;;;;;;;2.28;0.95;;;;;;;11.04;52.17;97158.25;10504738;28;20210;-69
2023/11/03 10:19:05;;;;;;;1.60;0.77;;;;;;;11.13;52.05;97151.22;10506656;28;20048;-70
2023/11/03 10:24:07;;;;;;;3.00;1.08;;;;;;;10.96;51.88;97163.44;10504377;28;20220;-70
2023/11/03 10:29:15;;;;;;;1.38;0.77;;;;;;;10.89;51.82;97159.81;10505647;28;20043;-69
2023/11/03 10:34:19;;;;;;;2.38;1.02;;;;;;;11.03;51.70;97155.78;10503035;28;20063;-70
2023/11/03 10:39:27;;;;;;;1.65;0.85;;;;;;;11.07;51.37;97146.66;10500856;28;20162;-70
2023/11/03 10:44:32;;;;;;;1.27;1.13;;;;;;;11.10;50.87;97147.13;10506040;28;20052;-69
2023/11/03 10:49:40;;;;;;;0.55;0.55;;;;;;;11.03;50.30;97146.09;10504116;28;20050;-70
2023/11/03 10:55:06;;;;;;;2.38;0.68;;;;;;;11.16;49.73;97146.50;10508026;28;20546;-70
2023/11/03 11:00:33;;;;;;;0.50;0.50;;;;;;;11.51;50.04;97155.81;10513132;28;21321;-69
2023/11/03 11:05:50;;;;;;;1.25;0.68;;;;;;;11.68;48.58;97161.84;10506732;28;20346;-70
2023/11/03 11:10:58;;;;;;;2.17;1.02;;;;;;;11.87;49.10;97154.44;10509662;28;20056;-70
2023/11/03 11:16:00;;;;;;;0.65;0.60;;;;;;;11.68;49.04;97167.09;10516403;28;20395;-70
2023/11/03 11:21:03;;;;;;;5.00;1.75;;;;;;;11.76;49.28;97165.28;10510446;28;20148;-69
2023/11/03 11:26:17;;;;;;;13.38;3.78;;;;;;;11.81;49.02;97162.16;10510580;28;20317;-69
2023/11/03 11:31:39;;;;;;;5.30;1.30;;;;;;;11.75;49.40;97153.16;10512555;28;20503;-70
2023/11/03 11:36:41;;;;;;;4.53;1.35;;;;;;;11.42;48.95;97156.00;10503538;28;20070;-69
2023/11/03 11:41:54;;;;;;;2.15;0.90;;;;;;;11.30;49.34;97161.53;10509728;28;20040;-69
2023/11/03 11:46:59;;;;;;;3.53;1.58;;;;;;;11.57;49.60;97160.38;10508841;28;20155;-70
2023/11/03 11:52:01;;;;;;;4.82;1.30;;;;;;;11.64;49.08;97171.03;10507721;28;20050;-69
2023/11/03 11:57:05;;;;;;;3.67;1.20;;;;;;;11.85;49.28;97168.69;10511879;28;20118;-69
2023/11/03 12:02:08;;;;;;;2.58;0.90;;;;;;;11.69;48.46;97179.19;10509404;28;20047;-70
2023/11/03 12:07:10;;;;;;;7.57;1.10;;;;;;;11.91;48.74;97181.13;10507235;28;20044;-69
2023/11/03 12:12:21;;;;;;;1.63;0.80;;;;;;;11.56;47.38;97187.53;10502178;28;20040;-69
2023/11/03 12:17:23;;;;;;;9.57;1.45;;;;;;;11.44;48.32;97182.81;10509159;28;20051;-69
2023/11/03 12:22:31;;;;;;;3.70;1.35;;;;;;;11.09;48.09;97174.25;10512185;28;20051;-69
2023/11/03 12:27:35;;;;;;;1.92;0.95;;;;;;;11.17;48.71;97171.66;10510062;28;20283;-69
2023/11/03 12:32:42;;;;;;;3.60;1.10;;;;;;;11.13;48.22;97175.56;10503643;28;20043;-70
2023/11/03 12:37:45;;;;;;;3.67;1.20;;;;;;;10.80;48.46;97180.88;10510127;28;20518;-69
2023/11/03 12:42:48;;;;;;;3.83;1.30;;;;;;;10.84;48.61;97184.81;10502542;28;20088;-69
2023/11/03 12:47:56;;;;;;;3.55;1.40;;;;;;;11.10;48.30;97181.13;10511728;28;20131;-69
2023/11/03 12:53:05;;;;;;;3.13;1.52;;;;;;;11.51;47.79;97176.75;10500564;28;20073;-70
2023/11/03 12:58:12;;;;;;;3.53;1.63;;;;;;;11.74;47.29;97190.00;10512312;28;20704;-68
2023/11/03 13:03:15;;;;;;;7.50;2.20;;;;;;;11.77;46.91;97189.66;10510403;28;20438;-69
2023/11/03 13:08:20;;;;;;;3.40;1.33;;;;;;;11.68;46.95;97190.66;10510151;28;20504;-69
2023/11/03 13:13:22;;;;;;;3.45;1.77;;;;;;;11.65;47.28;97186.56;10505186;28;20125;-69
2023/11/03 13:18:24;;;;;;;2.08;1.13;;;;;;;11.65;47.10;97188.34;10511481;28;20162;-68
2023/11/03 13:23:27;;;;;;;3.90;1.58;;;;;;;11.63;47.59;97183.28;10505768;28;20040;-69
2023/11/03 13:28:29;;;;;;;3.28;0.95;;;;;;;11.58;47.56;97176.91;10510251;28;20051;-69
2023/11/03 13:33:31;;;;;;;3.30;1.27;;;;;;;11.45;47.26;97182.63;10509969;28;20075;-69
2023/11/03 13:38:38;;;;;;;6.35;1.23;;;;;;;11.37;47.49;97189.66;10512078;28;20132;-69
2023/11/03 13:43:40;;;;;;;1.25;0.75;;;;;;;11.37;47.43;97195.72;10508980;28;20048;-69
2023/11/03 13:48:43;;;;;;;1.52;0.93;;;;;;;11.39;47.45;97206.84;10509967;28;21120;-68
2023/11/03 13:53:48;;;;;;;2.60;0.98;;;;;;;11.38;47.70;97218.28;10505746;28;20113;-68
2023/11/03 13:58:52;;;;;;;1.50;0.73;;;;;;;11.07;47.88;97223.28;10511738;28;20050;-68
2023/11/03 14:03:55;;;;;;;2.53;1.30;;;;;;;10.89;48.01;97233.03;10502707;28;20609;-69
2023/11/03 14:08:57;;;;;;;1.88;0.50;;;;;;;10.72;48.49;97230.53;10509579;28;20189;-69
2023/11/03 14:13:59;;;;;;;2.00;0.93;;;;;;;10.83;48.62;97238.06;10506626;28;20109;-69
2023/11/03 14:19:04;;;;;;;5.05;1.10;;;;;;;10.75;48.45;97246.69;10506267;28;20044;-68
2023/11/03 14:24:08;;;;;;;3.10;1.20;;;;;;;10.61;49.26;97243.84;10498544;28;20047;-68
2023/11/03 14:29:11;;;;;;;1.88;1.10;;;;;;;10.48;49.21;97242.50;10512387;28;20491;-68
2023/11/03 14:34:14;;;;;;;2.63;0.98;;;;;;;10.46;49.64;97252.28;10508770;28;21279;-67
2023/11/03 14:39:18;;;;;;;4.18;1.40;;;;;;;10.35;49.84;97260.41;10495293;28;20056;-67
2023/11/03 14:44:24;;;;;;;2.33;0.90;;;;;;;10.37;49.86;97258.47;10511316;28;20488;-67
2023/11/03 14:49:28;;;;;;;1.02;0.80;;;;;;;10.25;50.06;97269.31;10510478;28;20491;-67
2023/11/03 14:54:37;;;;;;;4.20;1.42;;;;;;;10.35;50.02;97262.19;10510363;28;20189;-68
2023/11/03 14:59:41;;;;;;;3.22;1.00;;;;;;;10.42;50.08;97269.25;10509143;28;20093;-68
2023/11/03 15:04:43;;;;;;;1.50;0.90;;;;;;;10.47;49.99;97274.03;10506340;28;20036;-68
2023/11/03 15:09:45;;;;;;;1.60;1.20;;;;;;;10.46;50.21;97270.56;10508437;28;20056;-68
2023/11/03 15:14:48;;;;;;;3.00;1.10;;;;;;;10.36;50.37;97285.53;10501310;28;20537;-68
2023/11/03 15:19:50;;;;;;;6.22;1.80;;;;;;;10.32;50.52;97286.00;10505991;28;20036;-69
2023/11/03 15:24:52;;;;;;;3.88;1.30;;;;;;;10.32;50.37;97288.63;10506253;28;20040;-69
2023/11/03 15:29:54;;;;;;;2.70;0.80;;;;;;;10.12;50.59;97295.00;10507478;28;20181;-69
2023/11/03 15:34:59;;;;;;;1.40;1.10;;;;;;;10.02;50.54;97307.34;10488541;28;20056;-69
2023/11/03 15:40:12;;;;;;;3.25;1.10;;;;;;;9.90;50.88;97304.16;10503092;28;20040;-69
2023/11/03 15:45:19;;;;;;;1.20;1.10;;;;;;;9.79;50.69;97314.03;10509374;28;20682;-69
2023/11/03 15:50:26;;;;;;;3.83;1.30;;;;;;;9.71;50.60;97319.16;10512662;28;20075;-69
2023/11/03 15:55:28;;;;;;;2.95;1.10;;;;;;;9.63;50.71;97331.13;10514110;28;20287;-69
2023/11/03 16:00:30;;;;;;;3.95;1.25;;;;;;;9.61;50.89;97343.50;10512904;28;20052;-70
2023/11/03 16:05:35;;;;;;;6.10;1.60;;;;;;;9.52;50.70;97354.81;10511912;28;20047;-69
2023/11/03 16:10:40;;;;;;;3.83;1.92;;;;;;;9.42;51.15;97364.50;10515201;28;20059;-69
2023/11/03 16:15:43;;;;;;;4.60;1.20;;;;;;;9.20;51.00;97364.88;10509825;28;20131;-69
2023/11/03 16:20:45;;;;;;;3.35;0.90;;;;;;;9.23;51.46;97367.22;10512401;28;20188;-68
2023/11/03 16:25:49;;;;;;;4.32;1.85;;;;;;;9.08;51.62;97366.06;10509710;28;20444;-67
2023/11/03 16:30:51;;;;;;;4.40;1.55;;;;;;;9.00;51.85;97372.94;10515354;28;20044;-67
2023/11/03 16:35:54;;;;;;;4.30;1.55;;;;;;;8.90;52.05;97385.19;10513330;28;20097;-67
2023/11/03 16:40:58;;;;;;;4.53;1.30;;;;;;;8.76;52.44;97395.13;10514603;28;20048;-67
2023/11/03 16:46:00;;;;;;;8.00;1.45;;;;;;;8.71;52.65;97399.09;10513350;28;20426;-67
2023/11/03 16:51:03;;;;;;;3.20;1.10;;;;;;;8.63;52.58;97401.59;10508719;28;20040;-68
2023/11/03 16:56:06;;;;;;;2.72;1.08;;;;;;;8.48;53.08;97413.44;10512954;28;20052;-68
2023/11/03 17:01:12;;;;;;;5.47;1.50;;;;;;;8.36;53.32;97411.94;10510445;28;20056;-68
2023/11/03 17:06:15;;;;;;;11.57;2.78;;;;;;;8.29;53.84;97409.06;10506409;28;20476;-68
2023/11/03 17:11:17;;;;;;;4.47;1.45;;;;;;;8.19;54.15;97404.81;10505933;28;20548;-68
2023/11/03 17:16:26;;;;;;;2.17;1.20;;;;;;;8.13;54.46;97414.00;10505433;28;20046;-67
2023/11/03 17:21:29;;;;;;;5.13;1.58;;;;;;;8.18;54.25;97411.00;10508663;28;20054;-68
2023/11/03 17:26:31;;;;;;;4.25;1.17;;;;;;;8.09;54.38;97416.97;10509100;28;20040;-68
2023/11/03 17:31:34;;;;;;;1.67;0.90;;;;;;;8.06;54.71;97418.06;10509266;28;20052;-63
2023/11/03 17:36:36;;;;;;;1.98;1.10;;;;;;;8.02;54.87;97420.13;10506174;28;20912;-63
2023/11/03 17:41:38;;;;;;;5.28;1.38;;;;;;;7.90;55.10;97423.00;10508456;28;20183;-64
2023/11/03 17:46:41;;;;;;;2.50;1.42;;;;;;;7.92;55.01;97424.50;10510582;28;20040;-63
2023/11/03 17:51:43;;;;;;;2.92;1.40;;;;;;;7.93;55.30;97420.97;10513215;28;20095;-63
2023/11/03 17:56:47;;;;;;;4.18;1.55;;;;;;;7.85;55.44;97420.78;10512579;28;20075;-63
2023/11/03 18:01:49;;;;;;;2.08;1.33;;;;;;;7.87;55.48;97424.09;10510936;28;20410;-64
2023/11/03 18:06:54;;;;;;;5.88;2.03;;;;;;;7.59;55.64;97430.06;10511406;28;20393;-63
2023/11/03 18:11:56;;;;;;;4.50;2.72;;;;;;;7.40;55.99;97434.41;10511581;28;20075;-63
2023/11/03 18:16:59;;;;;;;6.25;2.33;;;;;;;7.12;56.69;97439.34;10509078;28;20511;-63
2023/11/03 18:22:01;;;;;;;3.60;2.13;;;;;;;6.92;57.08;97444.59;10509730;28;20052;-63
2023/11/03 18:27:05;;;;;;;4.80;2.10;;;;;;;6.87;57.25;97441.56;10505768;28;20040;-64
2023/11/03 18:32:07;;;;;;;5.03;1.88;;;;;;;6.88;57.53;97438.00;10510065;28;20643;-64
2023/11/03 18:37:09;;;;;;;7.50;1.92;;;;;;;6.80;57.85;97437.81;10507910;28;20103;-65
2023/11/03 18:42:12;;;;;;;6.45;1.85;;;;;;;6.66;57.74;97448.56;10504870;28;20086;-64
2023/11/03 18:47:14;;;;;;;3.80;1.52;;;;;;;6.49;58.12;97447.34;10506446;28;20072;-65
2023/11/03 18:52:19;;;;;;;4.47;1.85;;;;;;;6.40;58.17;97445.53;10507871;28;20595;-64
2023/11/03 18:57:21;;;;;;;7.90;2.42;;;;;;;6.25;58.98;97450.19;10502990;28;20800;-64
2023/11/03 19:02:26;;;;;;;11.68;3.72;;;;;;;6.33;59.34;97441.75;10496442;28;20048;-65
2023/11/03 19:07:48;;;;;;;7.90;2.33;;;;;;;6.35;59.37;97448.47;10515594;28;20046;-64
2023/11/03 19:12:50;;;;;;;8.43;2.70;;;;;;;6.34;59.35;97441.66;10512819;28;20048;-65
2023/11/03 19:17:52;;;;;;;8.32;2.70;;;;;;;6.22;59.46;97450.41;10522000;28;20130;-65
2023/11/03 19:22:54;;;;;;;6.93;3.25;;;;;;;6.18;59.75;97458.56;10522007;28;20054;-65
2023/11/03 19:28:04;;;;;;;6.80;3.22;;;;;;;6.25;59.75;97465.75;10522209;28;20126;-64
2023/11/03 19:33:06;;;;;;;4.07;2.20;;;;;;;6.27;59.68;97474.25;10519363;28;20039;-64
2023/11/03 19:38:09;;;;;;;4.38;2.22;;;;;;;6.13;59.83;97477.09;10514993;28;20040;-64
2023/11/03 19:43:12;;;;;;;7.90;2.53;;;;;;;5.96;60.20;97480.22;10516145;28;20125;-64
2023/11/03 19:48:14;;;;;;;4.90;2.50;;;;;;;5.74;60.57;97484.66;10520617;28;20526;-64
2023/11/03 19:53:22;;;;;;;6.25;2.55;;;;;;;5.70;60.89;97491.00;10518091;28;20052;-64
2023/11/03 19:58:25;;;;;;;5.95;2.88;;;;;;;5.67;60.97;97489.50;10514437;28;20552;-64
2023/11/03 20:03:28;;;;;;;4.78;2.50;;;;;;;5.66;61.21;97500.78;10519942;28;20137;-64
2023/11/03 20:08:30;;;;;;;5.90;3.08;;;;;;;5.60;61.04;97509.06;10511341;28;20047;-65
2023/11/03 20:13:32;;;;;;;6.32;3.20;;;;;;;5.54;61.43;97505.19;10515219;28;20116;-64
2023/11/03 20:18:34;;;;;;;7.45;3.78;;;;;;;5.57;61.57;97505.88;10521068;28;20127;-64
2023/11/03 20:23:36;;;;;;;9.65;3.72;;;;;;;5.48;61.46;97504.81;10518579;28;20040;-64
2023/11/03 20:28:40;;;;;;;7.68;3.17;;;;;;;5.39;61.46;97495.97;10519011;28;20139;-65
2023/11/03 20:33:44;;;;;;;11.05;3.72;;;;;;;5.43;61.57;97491.41;10515506;28;20189;-65
2023/11/03 20:38:46;;;;;;;8.15;3.00;;;;;;;5.37;61.63;97491.88;10513346;28;20423;-65
2023/11/03 20:43:48;;;;;;;9.18;4.18;;;;;;;5.33;61.57;97496.47;10514155;28;20047;-65
2023/11/03 20:48:50;;;;;;;4.43;2.33;;;;;;;5.19;61.69;97506.22;10510687;28;20135;-65
2023/11/03 20:53:52;;;;;;;6.22;3.20;;;;;;;5.13;61.90;97501.50;10514215;28;20040;-65
2023/11/03 20:58:55;;;;;;;6.85;2.88;;;;;;;4.96;61.91;97495.06;10516462;28;20044;-65
2023/11/03 21:03:57;;;;;;;7.97;3.50;;;;;;;4.89;62.14;97500.78;10515738;28;20048;-64
2023/11/03 21:08:59;;;;;;;8.48;2.80;;;;;;;5.11;62.54;97500.81;10512201;28;20052;-65
2023/11/03 21:14:01;;;;;;;6.50;3.28;;;;;;;5.41;62.23;97493.31;10512513;28;20055;-65
2023/11/03 21:19:03;;;;;;;9.13;4.00;;;;;;;5.45;62.48;97489.53;10514687;28;20498;-65
2023/11/03 21:24:07;;;;;;;8.90;3.33;;;;;;;5.48;62.31;97487.50;10513377;28;20047;-65
2023/11/03 21:29:10;;;;;;;9.23;3.30;;;;;;;5.55;62.27;97490.47;10513697;28;20050;-65
2023/11/03 21:34:15;;;;;;;11.40;3.10;;;;;;;5.66;62.08;97482.66;10514513;28;20152;-64
2023/11/03 21:39:17;;;;;;;6.20;2.53;;;;;;;5.64;62.01;97476.75;10512640;28;20056;-64
2023/11/03 21:44:21;;;;;;;8.70;2.47;;;;;;;5.52;61.96;97485.50;10512545;28;20157;-64
2023/11/03 21:49:24;;;;;;;7.90;2.83;;;;;;;5.61;62.30;97479.59;10514310;28;20141;-64
2023/11/03 21:54:27;;;;;;;7.50;3.17;;;;;;;5.83;62.00;97474.38;10512974;28;20579;-64
2023/11/03 21:59:29;;;;;;;5.93;2.72;;;;;;;5.87;61.80;97472.34;10514267;28;20059;-64
2023/11/03 22:04:31;;;;;;;6.25;3.22;;;;;;;5.87;61.97;97467.16;10512201;28;20641;-64
2023/11/03 22:09:33;;;;;;;6.15;3.47;;;;;;;5.91;61.80;97469.41;10513986;28;20184;-64
2023/11/03 22:14:35;;;;;;;7.72;3.28;;;;;;;5.93;61.70;97462.31;10513341;28;20055;-64
2023/11/03 22:19:37;;;;;;;5.80;2.42;;;;;;;6.07;61.92;97467.22;10508994;28;20633;-65
2023/11/03 22:24:39;;;;;;;7.65;2.63;;;;;;;6.10;61.61;97466.94;10513570;28;20043;-64
2023/11/03 22:29:42;;;;;;;8.38;2.67;;;;;;;5.96;61.89;97458.66;10515063;28;20052;-64
2023/11/03 22:34:45;;;;;;;7.43;2.60;;;;;;;5.96;61.97;97459.47;10514397;28;20040;-64
2023/11/03 22:39:47;;;;;;;8.73;2.65;;;;;;;5.98;62.06;97465.34;10512326;28;20079;-65
2023/11/03 22:44:49;;;;;;;5.30;2.72;;;;;;;6.16;61.90;97469.09;10514615;28;20094;-63
2023/11/03 22:49:51;;;;;;;5.25;2.65;;;;;;;6.21;61.68;97476.47;10510372;28;20059;-64
2023/11/03 22:54:54;;;;;;;7.60;2.60;;;;;;;6.18;61.66;97479.34;10514291;28;20567;-64
2023/11/03 22:59:56;;;;;;;5.47;2.88;;;;;;;6.16;61.54;97476.88;10512363;28;21090;-64
2023/11/03 23:04:58;;;;;;;4.88;2.78;;;;;;;6.22;61.64;97478.13;10513176;28;20048;-64
2023/11/03 23:10:00;;;;;;;4.90;2.65;;;;;;;6.22;61.77;97483.31;10513148;28;20040;-64
2023/11/03 23:15:02;;;;;;;5.45;2.00;;;;;;;6.39;61.75;97489.78;10515084;28;20044;-63
2023/11/03 23:20:11;;;;;;;10.07;2.75;;;;;;;6.45;61.72;97491.88;10512019;28;20542;-64
2023/11/03 23:25:14;;;;;;;6.65;3.25;;;;;;;6.51;61.49;97489.59;10512540;28;20047;-64
2023/11/03 23:30:16;;;;;;;8.05;3.13;;;;;;;6.54;61.21;97488.50;10514658;28;20129;-64
2023/11/03 23:35:19;;;;;;;6.13;3.60;;;;;;;6.51;61.29;97483.59;10513474;28;20396;-64
2023/11/03 23:40:21;;;;;;;11.23;3.30;;;;;;;6.48;61.47;97481.22;10512694;28;20343;-63
2023/11/03 23:45:23;;;;;;;7.53;2.97;;;;;;;6.49;61.87;97483.69;10495459;28;20071;-63